Pagina principale
METAR-TAF:

METAR-TAF

Aeroporti :

Christchurch, Nuova Zelanda

Aeroporto di Christchurch

latitudine: 43-29S, longitudine: 172-33E, altezza: 38 m

Osservazione

Il bollettino è stato emesso 16 minuti fa, alle 11:30 UTC
Vento 8 kt da nord/nord-ovest
Temperature 15°C
Umidità 48%
Pressione 1005 hPa
Visibilità 10 km o più

METAR: NZCH 191130Z AUTO 34008KT 9999 NCD 15/04 Q1005 NOSIG

Ora: 23:46 (11:46 UTC)

Previsione

Il bollettino è stato emesso 38 minuti fa, alle 11:08 UTC
Previsione valida dal 19 alle 12 UTC al 20 alle 12 UTC
Vento 15 kt da ovest/nord-ovest con raffiche fino a 30 kt
Visibilità 10 km o più
nessuna nube inferiore a 1500 m e nessun cumulonembo
Evoluzione graduale
dal 20 alle 07 UTC al 20 alle 09 UTC
Vento 12 kt da ovest/nord-ovest

TAF: NZCH 191108Z 1912/2012 30015G30KT CAVOK BECMG 2007/2009 30012KT

Osservazioni e previsioni meteorologiche di più di 4000 aeroporti (messaggi METAR e TAF).

Le stazioni disponibili sono rappresentate dai dischi gialli e rossi sulla carta.

Puntare il mouse per vedere il nome della stazione.

Clicca sopra per visualizzare le osservazioni e previsioni meteorologiche.

Per cambiare la mappa : fare clic sui pulsanti verdi con una croce nera per ingrandire, il pulsante verde con un trattino per diminuire, o sulla freccia verde per le mappe adiacenti.


METAR-TAF: